Jeff, Indiana
Current Conditions -  °F | °C
As of 8:53 AM on Thursday 30 Oct 2014 (Local Time) from KLOU Reporting Station
Clear Clear  
Wind Chill: 38°   Ceiling: Unl
Heat Index: 38°   Visibility: 10mi
Dew Point: 35°   Wind: 3mph
Humidity: 89%   Direction: 310°NW
Pressure: 30.19"   Gusts: NA
Location:  38.3141°N, 85.7691°W
Report Text: KLOU 301253Z 31003KT 10SM CLR 03/02 A3019 RMK AO2 SLP224 T00330017
Loading
Personal Weather Stations






























Interactive Weather Map
Tropical Storm Tracking
New forecast layout! Learn more

10-Day Weather Forecast

Advertisements
Track Severe Weather on mobile